createdAt,value
2023-01-06T00:00:08.271Z,50.866642
2023-01-06T00:01:08.234Z,50.866638
2023-01-06T00:02:08.253Z,50.866741
2023-01-06T00:03:08.219Z,50.866707
2023-01-06T00:04:08.228Z,50.866741
2023-01-06T00:05:08.211Z,50.866703
2023-01-06T00:06:08.300Z,50.866730
2023-01-06T00:07:08.786Z,50.866673
2023-01-06T00:08:08.179Z,50.866695
2023-01-06T00:09:08.173Z,50.866749
2023-01-06T00:10:08.178Z,50.866776
2023-01-06T00:11:08.156Z,50.866734
2023-01-06T00:12:08.157Z,50.866695
2023-01-06T00:13:08.136Z,50.866772
2023-01-06T00:14:08.147Z,50.866730
2023-01-06T00:15:08.185Z,50.866722
2023-01-06T00:16:08.228Z,50.866737
2023-01-06T00:17:08.129Z,50.866737
2023-01-06T00:18:08.104Z,50.866749
2023-01-06T00:19:09.114Z,50.866718
2023-01-06T00:20:08.182Z,50.866768
2023-01-06T00:21:08.082Z,50.866760
2023-01-06T00:22:12.375Z,50.866753
2023-01-06T00:23:08.068Z,50.866798
2023-01-06T00:24:08.051Z,50.866806
2023-01-06T00:25:08.085Z,50.866798
2023-01-06T00:35:58.448Z,50.866035
2023-01-06T00:36:58.444Z,50.865856
2023-01-06T00:37:58.519Z,50.865997
2023-01-06T00:38:58.455Z,50.865677
2023-01-06T00:39:58.415Z,50.865952
2023-01-06T00:40:58.410Z,50.866306
2023-01-06T00:41:58.398Z,50.866219
2023-01-06T00:42:58.413Z,50.866333
2023-01-06T00:43:59.082Z,50.866501
2023-01-06T00:44:58.379Z,50.866566
2023-01-06T00:45:58.397Z,50.866676
2023-01-06T00:46:58.357Z,50.866657
2023-01-06T00:47:58.373Z,50.866707
2023-01-06T00:49:07.190Z,50.866737
2023-01-06T00:50:00.344Z,50.866718
2023-01-06T00:50:58.354Z,50.866745
2023-01-06T00:51:59.175Z,50.866734
2023-01-06T00:52:59.089Z,50.866779
2023-01-06T00:53:58.327Z,50.866768
2023-01-06T00:54:58.313Z,50.866726
2023-01-06T00:55:58.291Z,50.866711
2023-01-06T00:56:58.315Z,50.866734
2023-01-06T00:57:58.271Z,50.866772
2023-01-06T00:58:58.249Z,50.866734
2023-01-06T00:59:58.254Z,50.866653
2023-01-06T01:00:59.169Z,50.866634
2023-01-06T01:02:00.229Z,50.866615
2023-01-06T01:02:58.334Z,50.866699
2023-01-06T01:03:59.154Z,50.866676
2023-01-06T01:05:05.585Z,50.866737
2023-01-06T01:05:58.238Z,50.866714
2023-01-06T01:06:58.674Z,50.866688
2023-01-06T01:07:58.204Z,50.866665
2023-01-06T01:08:58.203Z,50.866680
2023-01-06T01:09:58.173Z,50.866699
2023-01-06T01:10:58.170Z,50.866653
2023-01-06T01:11:58.164Z,50.866707
2023-01-06T01:12:58.150Z,50.866573
2023-01-06T01:13:58.142Z,50.866383
2023-01-06T01:14:58.147Z,50.866566
2023-01-06T01:15:58.152Z,50.866699
2023-01-06T01:16:58.130Z,50.866753
2023-01-06T01:17:58.123Z,50.866734
2023-01-06T01:18:58.109Z,50.866707
2023-01-06T01:19:58.095Z,50.866722
2023-01-06T01:20:58.090Z,50.866749
2023-01-06T01:21:58.084Z,50.866791
2023-01-06T01:22:58.094Z,50.866776
2023-01-06T01:23:58.065Z,50.866882
2023-01-06T01:24:58.589Z,50.866840
2023-01-06T01:25:58.152Z,50.867413
2023-01-06T01:26:58.058Z,50.867222
2023-01-06T01:27:58.036Z,50.866901
2023-01-06T01:28:58.037Z,50.866726
2023-01-06T01:29:58.665Z,50.866806
2023-01-06T01:30:58.038Z,50.867683
2023-01-06T01:31:58.008Z,50.867043
2023-01-06T01:32:58.001Z,50.866859
2023-01-06T01:33:57.986Z,50.866776
2023-01-06T01:34:58.662Z,50.866810
2023-01-06T01:35:57.971Z,50.866806
2023-01-06T01:36:57.990Z,50.866753
2023-01-06T01:37:57.959Z,50.866791
2023-01-06T01:39:00.588Z,50.866806
2023-01-06T01:39:58.661Z,50.866772
2023-01-06T01:40:57.936Z,50.866745
2023-01-06T01:41:58.699Z,50.866722
2023-01-06T01:42:57.922Z,50.866776
2023-01-06T01:43:57.900Z,50.866814
2023-01-06T01:44:58.581Z,50.866764
2023-01-06T01:45:57.889Z,50.866859
2023-01-06T01:46:57.884Z,50.866837
2023-01-06T01:47:57.889Z,50.866833
2023-01-06T01:48:57.877Z,50.866779
2023-01-06T01:49:57.858Z,50.866806
2023-01-06T01:50:57.862Z,50.866817
2023-01-06T01:51:57.839Z,50.866867
2023-01-06T01:52:57.853Z,50.866844
2023-01-06T01:53:57.823Z,50.866814
2023-01-06T01:55:00.641Z,50.866692
2023-01-06T01:55:58.826Z,50.866692
2023-01-06T01:56:57.803Z,50.866688
2023-01-06T01:57:57.896Z,50.866760
2023-01-06T01:58:57.786Z,50.866653
2023-01-06T01:59:57.797Z,50.866650
2023-01-06T02:00:57.767Z,50.866707
2023-01-06T02:01:57.861Z,50.866745
2023-01-06T02:02:57.802Z,50.866756
2023-01-06T02:03:57.774Z,50.866760
2023-01-06T02:04:57.763Z,50.866665
2023-01-06T02:05:57.724Z,50.866680
2023-01-06T02:06:57.728Z,50.866768
2023-01-06T02:07:57.730Z,50.866703
2023-01-06T02:08:57.706Z,50.866966
2023-01-06T02:09:57.700Z,50.866795
2023-01-06T02:10:57.678Z,50.866756
2023-01-06T02:11:57.729Z,50.866703
2023-01-06T02:12:57.695Z,50.866646
2023-01-06T02:13:57.771Z,50.866661
2023-01-06T02:14:57.689Z,50.866760
2023-01-06T02:15:57.713Z,50.866737
2023-01-06T02:16:57.647Z,50.866665
2023-01-06T02:17:59.202Z,50.866760
2023-01-06T02:18:57.640Z,50.866749
2023-01-06T02:19:57.612Z,50.866673
2023-01-06T02:20:57.616Z,50.866703
2023-01-06T02:21:57.619Z,50.866688
2023-01-06T02:22:57.620Z,50.866661
2023-01-06T02:23:57.615Z,50.866741
2023-01-06T02:24:59.268Z,50.866718
2023-01-06T02:25:57.574Z,50.866734
2023-01-06T02:26:57.589Z,50.867069
2023-01-06T02:27:57.552Z,50.866745
2023-01-06T02:28:57.602Z,50.866779
2023-01-06T02:29:57.637Z,50.866741
2023-01-06T02:30:57.591Z,50.866611
2023-01-06T02:31:57.535Z,50.866825
2023-01-06T02:32:57.505Z,50.866669
2023-01-06T02:33:57.514Z,50.867126
2023-01-06T02:34:57.510Z,50.866760
2023-01-06T02:35:58.095Z,50.866673
2023-01-06T02:36:57.500Z,50.866814
2023-01-06T02:37:57.477Z,50.866890
2023-01-06T02:38:57.476Z,50.866955
2023-01-06T02:39:57.468Z,50.866695
2023-01-06T02:40:57.460Z,50.866798
2023-01-06T02:41:57.428Z,50.867016
2023-01-06T02:42:58.446Z,50.867012
2023-01-06T02:43:57.430Z,50.866871
2023-01-06T02:44:57.428Z,50.866749
2023-01-06T02:45:57.523Z,50.866905
2023-01-06T02:46:57.408Z,50.866993
2023-01-06T02:47:59.102Z,50.867001
2023-01-06T02:48:58.400Z,50.867062
2023-01-06T02:49:57.571Z,50.866894
2023-01-06T02:50:58.378Z,50.866947
2023-01-06T02:51:57.379Z,50.866962
2023-01-06T02:52:57.366Z,50.866833
2023-01-06T02:53:57.372Z,50.866985
2023-01-06T02:54:57.348Z,50.867073
2023-01-06T02:55:57.332Z,50.866951
2023-01-06T02:56:57.351Z,50.867165
2023-01-06T02:57:57.318Z,50.867348
2023-01-06T02:58:57.315Z,50.866936
2023-01-06T02:59:57.310Z,50.866974
2023-01-06T03:00:57.300Z,50.867027
2023-01-06T03:01:57.482Z,50.867088
2023-01-06T03:02:57.287Z,50.866993
2023-01-06T03:03:57.264Z,50.867043
2023-01-06T03:04:57.315Z,50.867058
2023-01-06T03:05:57.310Z,50.867020
2023-01-06T03:06:57.246Z,50.867020
2023-01-06T03:07:57.237Z,50.867207
2023-01-06T03:08:57.231Z,50.866943
2023-01-06T03:09:57.230Z,50.867054
2023-01-06T03:10:58.186Z,50.867077
2023-01-06T03:11:57.212Z,50.866978
2023-01-06T03:12:57.222Z,50.866867
2023-01-06T03:13:59.108Z,50.866875
2023-01-06T03:14:57.198Z,50.866879
2023-01-06T03:15:57.253Z,50.866817
2023-01-06T03:16:57.177Z,50.867115
2023-01-06T03:17:57.283Z,50.867229
2023-01-06T03:18:57.155Z,50.867149
2023-01-06T03:19:57.174Z,50.866982
2023-01-06T03:20:57.153Z,50.866856
2023-01-06T03:21:57.130Z,50.866913
2023-01-06T03:22:57.136Z,50.866833
2023-01-06T03:23:57.135Z,50.866772
2023-01-06T03:24:57.104Z,50.866734
2023-01-06T03:25:57.129Z,50.866764
2023-01-06T03:26:57.091Z,50.866875
2023-01-06T03:27:57.124Z,50.866928
2023-01-06T03:28:57.076Z,50.866852
2023-01-06T03:29:57.075Z,50.866798
2023-01-06T03:30:57.130Z,50.866787
2023-01-06T03:31:57.048Z,50.866825
2023-01-06T03:32:57.047Z,50.866814
2023-01-06T03:33:57.149Z,50.866905
2023-01-06T03:34:57.034Z,50.866852
2023-01-06T03:35:57.034Z,50.866779
2023-01-06T03:36:57.004Z,50.866764
2023-01-06T03:37:57.006Z,50.866867
2023-01-06T03:38:57.013Z,50.866890
2023-01-06T03:39:57.789Z,50.866863
2023-01-06T03:40:56.989Z,50.866875
2023-01-06T03:41:56.963Z,50.867092
2023-01-06T03:42:56.961Z,50.866943
2023-01-06T03:43:57.703Z,50.866974
2023-01-06T03:44:56.957Z,50.867161
2023-01-06T03:45:56.969Z,50.867195
2023-01-06T03:46:57.699Z,50.867268
2023-01-06T03:47:57.922Z,50.867329
2023-01-06T03:48:57.625Z,50.867401
2023-01-06T03:49:57.001Z,50.867226
2023-01-06T03:50:56.945Z,50.867130
2023-01-06T03:51:56.906Z,50.867069
2023-01-06T03:52:56.878Z,50.866840
2023-01-06T03:53:56.868Z,50.866787
2023-01-06T03:54:56.881Z,50.866768
2023-01-06T03:55:56.856Z,50.866764
2023-01-06T03:56:56.854Z,50.866734
2023-01-06T03:57:56.835Z,50.866741
2023-01-06T03:58:56.865Z,50.866776
2023-01-06T03:59:56.835Z,50.866772
2023-01-06T04:00:56.859Z,50.866753
2023-01-06T04:01:56.874Z,50.866745
2023-01-06T04:02:56.816Z,50.866745
2023-01-06T04:03:56.903Z,50.866783
2023-01-06T04:04:56.798Z,50.866737
2023-01-06T04:05:56.997Z,50.866737
2023-01-06T04:06:56.766Z,50.866791
2023-01-06T04:07:56.769Z,50.866795
2023-01-06T04:08:56.751Z,50.866798
2023-01-06T04:09:56.733Z,50.866833
2023-01-06T04:10:56.726Z,50.866844
2023-01-06T04:11:56.734Z,50.866833
2023-01-06T04:12:56.731Z,50.866745
2023-01-06T04:13:56.708Z,50.866722
2023-01-06T04:14:56.704Z,50.866653
2023-01-06T04:15:56.723Z,50.866745
2023-01-06T04:16:56.687Z,50.866722
2023-01-06T04:17:56.702Z,50.866776
2023-01-06T04:18:56.677Z,50.866703
2023-01-06T04:19:56.659Z,50.866760
2023-01-06T04:20:56.652Z,50.866726
2023-01-06T04:21:56.737Z,50.866753
2023-01-06T04:22:56.651Z,50.866783
2023-01-06T04:23:56.631Z,50.866745
2023-01-06T04:24:57.205Z,50.866756
2023-01-06T04:25:56.619Z,50.866734
2023-01-06T04:26:56.607Z,50.866756
2023-01-06T04:27:56.625Z,50.866795
2023-01-06T04:28:56.611Z,50.866791
2023-01-06T04:29:56.578Z,50.866787
2023-01-06T04:30:56.589Z,50.866802
2023-01-06T04:31:56.605Z,50.866928
2023-01-06T04:32:56.562Z,50.866791
2023-01-06T04:33:56.550Z,50.866837
2023-01-06T04:34:56.551Z,50.866859
2023-01-06T04:35:56.538Z,50.866867
2023-01-06T04:36:57.227Z,50.866714
2023-01-06T04:37:56.619Z,50.866669
2023-01-06T04:38:56.513Z,50.866676
2023-01-06T04:39:56.512Z,50.866711
2023-01-06T04:40:56.504Z,50.866772
2023-01-06T04:41:57.208Z,50.866722
2023-01-06T04:42:56.492Z,50.866703
2023-01-06T04:43:58.105Z,50.866737
2023-01-06T04:44:57.471Z,50.866646
2023-01-06T04:45:56.639Z,50.866646
2023-01-06T04:46:56.462Z,50.866703
2023-01-06T04:47:56.473Z,50.866726
2023-01-06T04:48:56.442Z,50.866665
2023-01-06T04:49:56.440Z,50.866673
2023-01-06T04:50:56.436Z,50.866798
2023-01-06T04:51:56.444Z,50.866676
2023-01-06T04:52:56.411Z,50.866646
2023-01-06T04:53:56.514Z,50.866749
2023-01-06T04:54:56.389Z,50.866756
2023-01-06T04:55:56.394Z,50.866856
2023-01-06T04:56:56.377Z,50.866825
2023-01-06T04:57:56.426Z,50.866791
2023-01-06T04:58:56.367Z,50.866852
2023-01-06T04:59:56.366Z,50.866821
2023-01-06T05:00:56.391Z,50.866821
2023-01-06T05:01:56.437Z,50.866825
2023-01-06T05:02:56.334Z,50.866905
2023-01-06T05:03:56.374Z,50.866856
2023-01-06T05:04:56.326Z,50.866886
2023-01-06T05:05:56.307Z,50.866863
2023-01-06T05:06:56.308Z,50.866844
2023-01-06T05:07:56.312Z,50.866840
2023-01-06T05:08:57.140Z,50.866821
2023-01-06T05:09:57.365Z,50.866840
2023-01-06T05:10:56.279Z,50.866802
2023-01-06T05:11:57.211Z,50.866776
2023-01-06T05:12:56.244Z,50.866783
2023-01-06T05:13:56.256Z,50.866745
2023-01-06T05:14:56.232Z,50.866558
2023-01-06T05:15:56.243Z,50.866600
2023-01-06T05:16:56.269Z,50.866585
2023-01-06T05:17:56.226Z,50.866684
2023-01-06T05:18:56.214Z,50.866776
2023-01-06T05:19:56.206Z,50.866783
2023-01-06T05:20:56.229Z,50.866806
2023-01-06T05:21:56.195Z,50.866829
2023-01-06T05:22:56.173Z,50.866924
2023-01-06T05:23:56.174Z,50.866840
2023-01-06T05:24:57.133Z,50.866783
2023-01-06T05:25:56.259Z,50.866764
2023-01-06T05:26:56.160Z,50.866798
2023-01-06T05:27:56.138Z,50.866810
2023-01-06T05:28:58.641Z,50.866810
2023-01-06T05:29:56.116Z,50.866856
2023-01-06T05:30:56.126Z,50.866867
2023-01-06T05:31:56.184Z,50.866852
2023-01-06T05:32:56.121Z,50.866856
2023-01-06T05:33:56.099Z,50.866840
2023-01-06T05:34:56.083Z,50.866768
2023-01-06T05:35:56.069Z,50.866779
2023-01-06T05:36:57.085Z,50.866798
2023-01-06T05:37:56.054Z,50.866783
2023-01-06T05:38:56.051Z,50.866783
2023-01-06T05:39:56.036Z,50.866787
2023-01-06T05:40:56.035Z,50.866776
2023-01-06T05:41:56.859Z,50.866764
2023-01-06T05:42:56.036Z,50.866806
2023-01-06T05:43:56.019Z,50.866817
2023-01-06T05:44:55.996Z,50.866779
2023-01-06T05:45:56.737Z,50.866695
2023-01-06T05:46:55.996Z,50.866760
2023-01-06T05:47:56.646Z,50.866779
2023-01-06T05:48:55.977Z,50.866802
2023-01-06T05:49:55.963Z,50.866783
2023-01-06T05:50:55.948Z,50.866795
2023-01-06T05:51:55.936Z,50.866783
2023-01-06T05:52:55.949Z,50.866749
2023-01-06T05:53:55.927Z,50.866772
2023-01-06T05:54:55.922Z,50.866798
2023-01-06T05:55:56.740Z,50.866783
2023-01-06T05:56:55.953Z,50.866810
2023-01-06T05:57:55.993Z,50.866844
2023-01-06T05:58:55.883Z,50.866806
2023-01-06T05:59:55.882Z,50.866772
2023-01-06T06:00:55.876Z,50.866753
2023-01-06T06:01:55.933Z,50.866779
2023-01-06T06:02:55.862Z,50.866753
2023-01-06T06:03:56.003Z,50.866806
2023-01-06T06:04:55.842Z,50.866722
2023-01-06T06:05:55.834Z,50.866726
2023-01-06T06:06:55.821Z,50.866760
2023-01-06T06:07:55.818Z,50.866806
2023-01-06T06:08:55.841Z,50.866791
2023-01-06T06:09:55.799Z,50.866726
2023-01-06T06:10:56.740Z,50.866787
2023-01-06T06:11:55.791Z,50.866795
2023-01-06T06:12:55.782Z,50.866753
2023-01-06T06:13:55.875Z,50.866714
2023-01-06T06:14:55.756Z,50.866764
2023-01-06T06:15:55.763Z,50.866749
2023-01-06T06:16:55.744Z,50.866764
2023-01-06T06:17:56.726Z,50.866764
2023-01-06T06:18:55.750Z,50.866783
2023-01-06T06:19:55.717Z,50.866749
2023-01-06T06:20:55.721Z,50.866783
2023-01-06T06:21:55.695Z,50.866764
2023-01-06T06:22:55.699Z,50.866734
2023-01-06T06:23:55.693Z,50.866688
2023-01-06T06:24:55.680Z,50.866711
2023-01-06T06:25:55.683Z,50.866695
2023-01-06T06:26:55.684Z,50.866692
2023-01-06T06:27:55.663Z,50.866699
2023-01-06T06:28:55.666Z,50.866772
2023-01-06T06:29:55.739Z,50.866783
2023-01-06T06:30:55.844Z,50.866737
2023-01-06T06:31:56.635Z,50.866734
2023-01-06T06:32:55.610Z,50.866776
2023-01-06T06:33:56.249Z,50.866722
2023-01-06T06:34:55.617Z,50.866783
2023-01-06T06:35:55.599Z,50.866779
2023-01-06T06:36:55.587Z,50.866852
2023-01-06T06:37:55.637Z,50.866592
2023-01-06T06:38:55.569Z,50.866615
2023-01-06T06:39:55.561Z,50.866558
2023-01-06T06:40:55.550Z,50.866707
2023-01-06T06:41:55.557Z,50.866692
2023-01-06T06:42:55.543Z,50.866760
2023-01-06T06:43:55.533Z,50.866840
2023-01-06T06:44:55.524Z,50.866817
2023-01-06T06:45:55.650Z,50.866795
2023-01-06T06:46:55.513Z,50.866760
2023-01-06T06:47:55.509Z,50.866779
2023-01-06T06:48:55.486Z,50.866753
2023-01-06T06:49:55.487Z,50.866722
2023-01-06T06:50:55.518Z,50.866680
2023-01-06T06:51:55.659Z,50.866745
2023-01-06T06:52:56.473Z,50.866879
2023-01-06T06:53:55.483Z,50.867043
2023-01-06T06:54:55.447Z,50.867184
2023-01-06T06:55:55.459Z,50.867207
2023-01-06T06:56:55.437Z,50.867172
2023-01-06T06:57:55.446Z,50.867119
2023-01-06T06:58:55.397Z,50.866997
2023-01-06T06:59:56.437Z,50.866993
2023-01-06T07:00:55.398Z,50.866936
2023-01-06T07:01:55.613Z,50.866817
2023-01-06T07:02:55.375Z,50.866741
2023-01-06T07:03:55.370Z,50.866764
2023-01-06T07:04:55.376Z,50.866714
2023-01-06T07:05:55.360Z,50.866772
2023-01-06T07:06:55.386Z,50.866722
2023-01-06T07:07:55.340Z,50.866665
2023-01-06T07:08:55.338Z,50.866692
2023-01-06T07:09:55.329Z,50.866737
2023-01-06T07:10:56.254Z,50.866718
2023-01-06T07:11:55.340Z,50.866673
2023-01-06T07:12:55.297Z,50.866665
2023-01-06T07:13:55.304Z,50.866741
2023-01-06T07:14:55.297Z,50.866669
2023-01-06T07:15:55.333Z,50.866718
2023-01-06T07:16:55.274Z,50.866665
2023-01-06T07:17:55.359Z,50.866737
2023-01-06T07:18:55.286Z,50.866772
2023-01-06T07:19:55.243Z,50.866783
2023-01-06T07:20:55.238Z,50.866829
2023-01-06T07:21:55.227Z,50.866665
2023-01-06T07:22:55.236Z,50.866680
2023-01-06T07:23:55.223Z,50.866714
2023-01-06T07:24:55.203Z,50.866711
2023-01-06T07:25:55.222Z,50.866753
2023-01-06T07:26:55.186Z,50.866734
2023-01-06T07:27:56.166Z,50.866692
2023-01-06T07:28:55.196Z,50.866745
2023-01-06T07:29:55.180Z,50.866787
2023-01-06T07:30:55.189Z,50.866756
2023-01-06T07:31:55.153Z,50.866783
2023-01-06T07:32:55.148Z,50.866760
2023-01-06T07:33:55.233Z,50.866798
2023-01-06T07:34:55.121Z,50.866760
2023-01-06T07:35:55.127Z,50.866741
2023-01-06T07:36:55.115Z,50.866791
2023-01-06T07:37:56.959Z,50.866760
2023-01-06T07:38:55.091Z,50.866760
2023-01-06T07:39:55.078Z,50.866749
2023-01-06T07:40:55.091Z,50.866764
2023-01-06T07:41:56.081Z,50.866806
2023-01-06T07:42:55.069Z,50.866749
2023-01-06T07:43:55.060Z,50.866901
2023-01-06T07:44:55.039Z,50.866787
2023-01-06T07:45:55.122Z,50.866772
2023-01-06T07:46:55.035Z,50.866776
2023-01-06T07:47:55.019Z,50.866768
2023-01-06T07:48:55.020Z,50.866753
2023-01-06T07:49:55.134Z,50.866722
2023-01-06T07:50:55.002Z,50.866737
2023-01-06T07:51:54.999Z,50.866730
2023-01-06T07:52:54.977Z,50.866718
2023-01-06T07:53:54.973Z,50.866753
2023-01-06T07:54:54.972Z,50.866722
2023-01-06T07:55:54.978Z,50.866741
2023-01-06T07:56:54.947Z,50.866787
2023-01-06T07:57:54.958Z,50.866756
2023-01-06T07:58:54.951Z,50.866753
2023-01-06T07:59:54.934Z,50.866707
2023-01-06T08:00:54.916Z,50.866760
2023-01-06T08:01:55.084Z,50.866779
2023-01-06T08:02:54.939Z,50.866714
2023-01-06T08:03:54.889Z,50.866669
2023-01-06T08:04:54.898Z,50.866722
2023-01-06T08:05:54.982Z,50.866741
2023-01-06T08:06:54.866Z,50.866718
2023-01-06T08:07:54.869Z,50.866810
2023-01-06T08:08:54.867Z,50.866817
2023-01-06T08:09:54.848Z,50.866810
2023-01-06T08:10:54.835Z,50.866753
2023-01-06T08:11:54.843Z,50.866684
2023-01-06T08:12:54.863Z,50.866753
2023-01-06T08:13:54.815Z,50.866711
2023-01-06T08:14:54.817Z,50.866814
2023-01-06T08:15:54.854Z,50.866806
2023-01-06T08:16:54.799Z,50.866802
2023-01-06T08:17:54.798Z,50.866756
2023-01-06T08:18:54.778Z,50.866879
2023-01-06T08:19:54.771Z,50.866909
2023-01-06T08:20:54.757Z,50.866837
2023-01-06T08:21:54.868Z,50.866840
2023-01-06T08:22:54.744Z,50.866806
2023-01-06T08:23:54.732Z,50.866756
2023-01-06T08:24:54.727Z,50.866726
2023-01-06T08:25:54.724Z,50.866756
2023-01-06T08:26:54.713Z,50.866783
2023-01-06T08:27:55.287Z,50.866776
2023-01-06T08:28:55.698Z,50.866737
2023-01-06T08:29:55.699Z,50.866791
2023-01-06T08:30:55.343Z,50.866806
2023-01-06T08:32:09.295Z,50.866901
2023-01-06T08:32:56.668Z,50.866886
2023-01-06T08:33:54.671Z,50.866898
2023-01-06T08:34:54.644Z,50.866879
2023-01-06T08:35:54.644Z,50.866901
2023-01-06T08:36:54.654Z,50.866875
2023-01-06T08:37:54.737Z,50.866920
2023-01-06T08:38:54.633Z,50.866867
2023-01-06T08:39:55.191Z,50.866886
2023-01-06T08:40:54.612Z,50.866901
2023-01-06T08:41:54.592Z,50.866833
2023-01-06T08:42:54.586Z,50.866806
2023-01-06T08:43:54.576Z,50.866848
2023-01-06T08:44:54.580Z,50.866787
2023-01-06T08:45:54.551Z,50.866802
2023-01-06T08:46:54.545Z,50.866817
2023-01-06T08:47:54.566Z,50.866753
2023-01-06T08:48:54.530Z,50.866756
2023-01-06T08:49:54.527Z,50.866779
2023-01-06T08:50:54.516Z,50.866798
2023-01-06T08:51:54.510Z,50.866776
2023-01-06T08:52:54.498Z,50.866741
2023-01-06T08:53:54.611Z,50.866756
2023-01-06T08:54:54.512Z,50.866749
2023-01-06T08:55:54.508Z,50.866749
2023-01-06T08:56:54.539Z,50.866741
2023-01-06T08:57:55.373Z,50.866779
2023-01-06T08:58:54.543Z,50.866810
2023-01-06T09:00:27.214Z,50.866783
2023-01-06T09:00:54.454Z,50.866768
2023-01-06T09:01:54.587Z,50.866817
2023-01-06T09:02:55.210Z,50.866791
2023-01-06T09:03:54.438Z,50.866806
2023-01-06T09:04:54.457Z,50.866833
2023-01-06T09:05:54.419Z,50.866966
2023-01-06T09:06:55.689Z,50.866837
2023-01-06T09:07:54.389Z,50.866783
2023-01-06T09:08:54.384Z,50.866760
2023-01-06T09:09:54.487Z,50.866772
2023-01-06T09:10:54.384Z,50.866871
2023-01-06T09:11:54.360Z,50.866974
2023-01-06T09:12:54.362Z,50.866966
2023-01-06T09:13:54.344Z,50.867039
2023-01-06T09:14:55.220Z,50.867012
2023-01-06T09:15:54.355Z,50.866997
2023-01-06T09:16:54.326Z,50.867023
2023-01-06T09:17:54.318Z,50.866978
2023-01-06T09:18:54.298Z,50.866989
2023-01-06T09:19:55.306Z,50.867218
2023-01-06T09:20:54.397Z,50.867195
2023-01-06T09:21:54.290Z,50.867039
2023-01-06T09:22:54.273Z,50.866978
2023-01-06T09:23:54.264Z,50.866486
2023-01-06T09:52:44.107Z,50.866539
2023-01-06T09:53:45.726Z,50.866642
2023-01-06T09:54:44.087Z,50.866890
2023-01-06T09:55:44.084Z,50.866806
2023-01-06T09:56:45.965Z,50.866940
2023-01-06T09:57:44.356Z,50.866817
2023-01-06T09:58:44.056Z,50.867001
2023-01-06T09:59:44.049Z,50.866905
2023-01-06T10:00:44.057Z,50.866917
2023-01-06T10:01:44.143Z,50.866962
2023-01-06T10:02:44.019Z,50.866833
2023-01-06T10:03:44.044Z,50.866985
2023-01-06T10:04:44.009Z,50.866947
2023-01-06T10:05:44.065Z,50.866825
2023-01-06T10:06:43.988Z,50.866714
2023-01-06T10:07:43.993Z,50.866699
2023-01-06T10:08:43.988Z,50.866825
2023-01-06T10:09:43.996Z,50.866867
2023-01-06T10:10:43.957Z,50.866768
2023-01-06T10:11:43.946Z,50.866734
2023-01-06T10:12:44.048Z,50.866821
2023-01-06T10:13:43.947Z,50.866859
2023-01-06T10:14:43.928Z,50.866894
2023-01-06T10:15:43.919Z,50.866943
2023-01-06T10:16:43.924Z,50.866951
2023-01-06T10:17:43.926Z,50.866920
2023-01-06T10:18:45.696Z,50.866802
2023-01-06T10:19:43.890Z,50.866959
2023-01-06T10:20:44.903Z,50.866848
2023-01-06T10:21:45.608Z,50.866833
2023-01-06T10:22:43.864Z,50.866928
2023-01-06T10:23:43.862Z,50.866974
2023-01-06T10:24:43.852Z,50.867023
2023-01-06T10:25:43.888Z,50.866745
2023-01-06T10:26:43.848Z,50.866741
2023-01-06T10:27:44.593Z,50.866711
2023-01-06T10:28:43.915Z,50.866749
2023-01-06T10:29:43.817Z,50.866718
2023-01-06T10:30:44.540Z,50.866501
2023-01-06T10:31:44.861Z,50.866535
2023-01-06T10:32:43.788Z,50.866596
2023-01-06T10:33:43.772Z,50.866749
2023-01-06T10:34:43.783Z,50.866783
2023-01-06T10:35:43.765Z,50.866657
2023-01-06T10:36:43.774Z,50.866726
2023-01-06T10:37:45.599Z,50.866673
2023-01-06T10:38:43.740Z,50.866680
2023-01-06T10:39:43.727Z,50.866707
2023-01-06T10:40:43.757Z,50.866711
2023-01-06T10:41:44.650Z,50.866745
2023-01-06T10:42:44.755Z,50.866737
2023-01-06T10:43:43.705Z,50.866837
2023-01-06T10:44:43.828Z,50.866791
2023-01-06T10:45:43.740Z,50.866798
2023-01-06T10:46:43.759Z,50.866844
2023-01-06T10:47:44.720Z,50.866776
2023-01-06T10:48:43.664Z,50.866837
2023-01-06T10:49:43.660Z,50.866852
2023-01-06T10:50:43.659Z,50.866993
2023-01-06T10:51:45.632Z,50.866905
2023-01-06T10:52:43.686Z,50.866669
2023-01-06T10:53:44.607Z,50.866642
2023-01-06T10:54:43.625Z,50.866512
2023-01-06T10:55:43.599Z,50.866657
2023-01-06T10:56:43.624Z,50.866764
2023-01-06T10:57:43.611Z,50.866852
2023-01-06T10:58:43.604Z,50.866814
2023-01-06T10:59:44.608Z,50.866756
2023-01-06T11:00:44.282Z,50.866779
2023-01-06T11:01:43.679Z,50.866730
2023-01-06T11:02:43.617Z,50.866776
2023-01-06T11:03:43.585Z,50.866707
2023-01-06T11:04:43.536Z,50.866791
2023-01-06T11:05:45.182Z,50.866779
2023-01-06T11:20:31.912Z,50.866707
2023-01-06T11:21:31.912Z,50.866665
2023-01-06T11:23:32.906Z,50.866653
2023-01-06T11:24:32.806Z,50.866741
2023-01-06T11:25:31.873Z,50.866726
2023-01-06T11:26:31.872Z,50.866741
2023-01-06T11:27:31.889Z,50.866760
2023-01-06T11:28:32.846Z,50.866810
2023-01-06T11:29:31.855Z,50.866802
2023-01-06T11:30:31.837Z,50.866795
2023-01-06T11:31:32.419Z,50.866840
2023-01-06T11:32:33.460Z,50.866848
2023-01-06T11:33:31.833Z,50.866886
2023-01-06T11:34:31.860Z,50.866951
2023-01-06T11:35:32.798Z,50.866924
2023-01-06T11:36:31.781Z,50.866882
2023-01-06T11:37:31.841Z,50.866821
2023-01-06T11:38:31.766Z,50.866798
2023-01-06T11:39:31.762Z,50.866825
2023-01-06T11:40:31.764Z,50.866795
2023-01-06T11:41:31.743Z,50.866837
2023-01-06T11:42:32.383Z,50.866837
2023-01-06T11:43:31.773Z,50.866817
2023-01-06T11:44:31.749Z,50.866783
2023-01-06T11:45:31.753Z,50.866756
2023-01-06T11:46:31.699Z,50.866760
2023-01-06T11:47:32.704Z,50.866741
2023-01-06T11:48:31.809Z,50.866760
2023-01-06T11:49:31.690Z,50.866737
2023-01-06T11:50:31.694Z,50.866779
2023-01-06T11:51:31.667Z,50.866840
2023-01-06T11:52:31.675Z,50.866795
2023-01-06T11:53:31.649Z,50.866776
2023-01-06T11:54:31.647Z,50.866776
2023-01-06T11:55:31.666Z,50.866756
2023-01-06T11:56:31.628Z,50.866695
2023-01-06T11:57:31.639Z,50.866707
2023-01-06T11:58:31.611Z,50.866749
2023-01-06T11:59:31.595Z,50.866714
2023-01-06T12:00:31.617Z,50.866730
2023-01-06T12:04:40.836Z,50.866722
2023-01-06T12:05:38.943Z,50.866673
2023-01-06T12:06:38.953Z,50.866611
2023-01-06T12:07:38.941Z,50.866703
2023-01-06T12:08:38.925Z,50.866703
2023-01-06T12:09:38.920Z,50.866673
2023-01-06T12:10:40.822Z,50.866680
2023-01-06T12:11:38.941Z,50.866718
2023-01-06T12:12:39.809Z,50.866722
2023-01-06T12:13:44.520Z,50.866756
2023-01-06T12:14:40.897Z,50.866749
2023-01-06T12:15:38.909Z,50.866756
2023-01-06T12:16:38.894Z,50.866741
2023-01-06T12:17:39.162Z,50.866707
2023-01-06T12:18:38.839Z,50.866749
2023-01-06T12:19:38.968Z,50.866734